Time;durP1;ratioP1;P1;durP2;ratioP2;P2;SDS_P1;SDS_P2;PMS_P1;PMS_P2;Temp;Humidity;BMP_temperature;BMP_pressure;BME280_temperature;BME280_humidity;BME280_pressure;Samples;Min_cycle;Max_cycle;Signal;HPM_P1;HPM_P2
2022/10/29 00:00:59;;;;;;;;;13.33;11.33;;;;;;;;5030757;28;45960;-75
2022/10/29 00:03:25;;;;;;;;;17.67;13.33;;;;;;;;5033373;28;45585;-77
2022/10/29 00:05:57;;;;;;;;;16.67;15.67;;;;;;;;5017856;28;45939;-73
2022/10/29 00:08:22;;;;;;;;;14.67;14.33;;;;;;;;5028338;28;46113;-74
2022/10/29 00:10:48;;;;;;;;;15.67;14.33;;;;;;;;5027197;28;45343;-74
2022/10/29 00:13:13;;;;;;;;;18.00;16.67;;;;;;;;5025606;28;45716;-73
2022/10/29 00:15:39;;;;;;;;;18.67;15.33;;;;;;;;5030296;28;45283;-74
2022/10/29 00:18:04;;;;;;;;;13.00;13.00;;;;;;;;5026676;28;45565;-74
2022/10/29 00:20:30;;;;;;;;;16.00;15.33;;;;;;;;5011718;28;45291;-75
2022/10/29 00:22:55;;;;;;;;;16.33;13.00;;;;;;;;5026029;28;45529;-74
2022/10/29 00:25:20;;;;;;;;;15.33;14.00;;;;;;;;5028296;28;45945;-74
2022/10/29 00:27:45;;;;;;;;;17.67;16.00;;;;;;;;5035783;28;45451;-75
2022/10/29 00:30:11;;;;;;;;;15.00;13.33;;;;;;;;5037502;28;45473;-75
2022/10/29 00:32:36;;;;;;;;;18.33;16.00;;;;;;;;5036315;28;45437;-73
2022/10/29 00:35:02;;;;;;;;;15.67;15.00;;;;;;;;5035670;28;45626;-74
2022/10/29 00:37:27;;;;;;;;;17.33;14.33;;;;;;;;5011124;28;47076;-75
2022/10/29 00:39:52;;;;;;;;;13.00;13.00;;;;;;;;5030412;28;45724;-74
2022/10/29 00:42:17;;;;;;;;;17.33;15.67;;;;;;;;5030824;28;45461;-75
2022/10/29 00:44:43;;;;;;;;;13.33;12.00;;;;;;;;5023965;28;45829;-75
2022/10/29 00:47:17;;;;;;;;;20.33;12.33;;;;;;;;5033280;28;46155;-75
2022/10/29 00:49:44;;;;;;;;;14.00;12.67;;;;;;;;5013172;28;45710;-74
2022/10/29 00:52:09;;;;;;;;;21.00;18.67;;;;;;;;5018460;28;45473;-75
2022/10/29 00:54:38;;;;;;;;;14.00;12.67;;;;;;;;5015291;28;45790;-73
2022/10/29 00:57:07;;;;;;;;;16.67;13.67;;;;;;;;5029789;28;45683;-73
2022/10/29 00:59:32;;;;;;;;;17.00;14.00;;;;;;;;5022642;28;45719;-74
2022/10/29 01:01:58;;;;;;;;;14.00;12.33;;;;;;;;5035206;28;45544;-73
2022/10/29 01:04:23;;;;;;;;;19.00;16.33;;;;;;;;5014393;28;45545;-73
2022/10/29 01:06:49;;;;;;;;;16.00;15.00;;;;;;;;5028333;28;45761;-76
2022/10/29 01:09:14;;;;;;;;;18.33;13.33;;;;;;;;4999800;28;45871;-75
2022/10/29 01:11:48;;;;;;;;;21.67;13.00;;;;;;;;5011403;28;45715;-75
2022/10/29 01:14:14;;;;;;;;;14.00;12.67;;;;;;;;5016363;28;46625;-75
2022/10/29 01:16:45;;;;;;;;;13.00;12.33;;;;;;;;5016450;28;45386;-75
2022/10/29 01:19:13;;;;;;;;;15.67;15.00;;;;;;;;5026725;28;45472;-75
2022/10/29 01:21:50;;;;;;;;;17.33;11.67;;;;;;;;5016943;28;45464;-73
2022/10/29 01:24:21;;;;;;;;;13.33;11.67;;;;;;;;5010549;28;45505;-74
2022/10/29 01:26:53;;;;;;;;;18.33;14.00;;;;;;;;5003131;28;45651;-74
2022/10/29 01:29:18;;;;;;;;;12.67;11.67;;;;;;;;5017771;28;45469;-74
2022/10/29 01:31:49;;;;;;;;;14.33;14.00;;;;;;;;5018647;28;45676;-76
2022/10/29 01:34:19;;;;;;;;;21.00;13.00;;;;;;;;5012145;28;46167;-75
2022/10/29 01:36:44;;;;;;;;;20.50;16.00;;;;;;;;5019359;28;45702;-75
2022/10/29 01:39:18;;;;;;;;;20.00;13.33;;;;;;;;5000424;28;45608;-75
2022/10/29 01:41:53;;;;;;;;;15.33;14.00;;;;;;;;5020027;28;45717;-74
2022/10/29 01:44:24;;;;;;;;;16.33;16.33;;;;;;;;5017797;28;45228;-75
2022/10/29 01:46:55;;;;;;;;;17.33;13.33;;;;;;;;5016245;28;45476;-77
2022/10/29 01:49:23;;;;;;;;;18.00;15.33;;;;;;;;5019437;28;45336;-76
2022/10/29 01:51:48;;;;;;;;;16.33;13.67;;;;;;;;5028770;28;45860;-75
2022/10/29 01:54:14;;;;;;;;;19.00;16.67;;;;;;;;5027991;28;45430;-73
2022/10/29 01:56:39;;;;;;;;;20.67;17.00;;;;;;;;5027449;28;45737;-75
2022/10/29 01:59:06;;;;;;;;;19.33;15.67;;;;;;;;5032143;28;45430;-73
2022/10/29 02:01:32;;;;;;;;;13.67;11.67;;;;;;;;5004841;28;45689;-74
2022/10/29 02:04:03;;;;;;;;;14.33;11.00;;;;;;;;5025093;28;45525;-73
2022/10/29 02:06:52;;;;;;;;;16.33;12.00;;;;;;;;5034692;28;46333;-74
2022/10/29 02:09:36;;;;;;;;;15.33;12.67;;;;;;;;5027669;28;45692;-75
2022/10/29 02:12:11;;;;;;;;;22.33;15.67;;;;;;;;5016833;28;45773;-74
2022/10/29 02:14:46;;;;;;;;;14.67;14.33;;;;;;;;5011251;28;46225;-74
2022/10/29 02:17:11;;;;;;;;;16.67;13.00;;;;;;;;5026057;28;45869;-73
2022/10/29 02:19:37;;;;;;;;;15.67;15.67;;;;;;;;5020954;28;45659;-75
2022/10/29 02:22:02;;;;;;;;;26.00;14.67;;;;;;;;5024881;28;45332;-74
2022/10/29 02:24:27;;;;;;;;;13.67;10.33;;;;;;;;5027779;28;45419;-73
2022/10/29 02:26:53;;;;;;;;;15.33;11.33;;;;;;;;5003070;28;47219;-74
2022/10/29 02:29:18;;;;;;;;;9.67;8.67;;;;;;;;5020100;28;45638;-74
2022/10/29 02:31:43;;;;;;;;;12.33;12.33;;;;;;;;5022390;28;45740;-73
2022/10/29 02:34:09;;;;;;;;;15.67;12.00;;;;;;;;5022461;28;45695;-75
2022/10/29 02:36:34;;;;;;;;;8.33;6.67;;;;;;;;5020142;28;45689;-75
2022/10/29 02:38:59;;;;;;;;;12.33;10.67;;;;;;;;5021187;28;45364;-75
2022/10/29 02:41:24;;;;;;;;;15.33;12.67;;;;;;;;5008915;28;45394;-75
2022/10/29 02:43:50;;;;;;;;;15.00;12.00;;;;;;;;5025587;28;45025;-74
2022/10/29 02:46:19;;;;;;;;;14.33;12.67;;;;;;;;5002462;28;47051;-75
2022/10/29 02:48:45;;;;;;;;;15.33;12.33;;;;;;;;5004177;28;45364;-74
2022/10/29 02:51:11;;;;;;;;;19.33;13.00;;;;;;;;5023188;28;45661;-75
2022/10/29 02:53:36;;;;;;;;;16.00;13.67;;;;;;;;5024659;28;45371;-73
2022/10/29 02:56:02;;;;;;;;;19.33;12.67;;;;;;;;5019130;28;46167;-74
2022/10/29 02:58:27;;;;;;;;;12.33;11.33;;;;;;;;5015032;28;45497;-75
2022/10/29 03:00:53;;;;;;;;;17.33;14.67;;;;;;;;5018230;28;45577;-73
2022/10/29 03:03:18;;;;;;;;;17.00;12.33;;;;;;;;5006216;28;45433;-75
2022/10/29 03:05:43;;;;;;;;;14.33;10.00;;;;;;;;5029108;28;45939;-76
2022/10/29 03:08:09;;;;;;;;;22.67;17.00;;;;;;;;5012916;28;45504;-75
2022/10/29 03:10:34;;;;;;;;;18.33;14.33;;;;;;;;5016088;28;45796;-75
2022/10/29 03:12:59;;;;;;;;;18.67;14.67;;;;;;;;5023423;28;45838;-74
2022/10/29 03:15:25;;;;;;;;;17.00;13.33;;;;;;;;5006484;28;45819;-75
2022/10/29 03:17:50;;;;;;;;;17.67;16.00;;;;;;;;5033778;28;45291;-73
2022/10/29 03:20:15;;;;;;;;;14.67;12.67;;;;;;;;5009344;28;45804;-75
2022/10/29 03:22:41;;;;;;;;;6.67;6.67;;;;;;;;5021540;28;45894;-75
2022/10/29 03:25:06;;;;;;;;;17.00;12.33;;;;;;;;5021896;28;46494;-74
2022/10/29 03:27:31;;;;;;;;;12.00;11.00;;;;;;;;5038254;28;45775;-73
2022/10/29 03:29:57;;;;;;;;;16.00;12.00;;;;;;;;5032522;28;45726;-77
2022/10/29 03:32:22;;;;;;;;;12.33;11.67;;;;;;;;5026731;28;45349;-75
2022/10/29 03:34:47;;;;;;;;;12.33;10.33;;;;;;;;5020967;28;47154;-75
2022/10/29 03:37:12;;;;;;;;;14.67;13.67;;;;;;;;5022052;28;45707;-76
2022/10/29 03:39:38;;;;;;;;;17.67;13.67;;;;;;;;5018392;28;45382;-75
2022/10/29 03:42:03;;;;;;;;;14.33;10.67;;;;;;;;5011732;28;45678;-75
2022/10/29 03:44:28;;;;;;;;;17.00;15.67;;;;;;;;5016623;28;45956;-73
2022/10/29 03:46:54;;;;;;;;;18.67;12.33;;;;;;;;5032512;28;45342;-74
2022/10/29 03:49:19;;;;;;;;;12.67;10.67;;;;;;;;5027296;28;45283;-74
2022/10/29 03:51:44;;;;;;;;;12.00;9.00;;;;;;;;5028545;28;45439;-73
2022/10/29 03:54:13;;;;;;;;;16.67;12.00;;;;;;;;5031760;28;45377;-77
2022/10/29 03:56:38;;;;;;;;;21.33;13.33;;;;;;;;5036391;28;45626;-74
2022/10/29 03:59:03;;;;;;;;;16.33;12.00;;;;;;;;5029128;28;45924;-74
2022/10/29 04:01:28;;;;;;;;;17.67;16.00;;;;;;;;5018261;28;45750;-75
2022/10/29 04:03:54;;;;;;;;;22.00;19.00;;;;;;;;4996687;28;46965;-73
2022/10/29 04:06:19;;;;;;;;;14.00;11.00;;;;;;;;5033256;28;45751;-75
2022/10/29 04:08:44;;;;;;;;;17.33;13.00;;;;;;;;5035917;28;45331;-75
2022/10/29 04:11:10;;;;;;;;;14.67;13.33;;;;;;;;5031512;28;45962;-75
2022/10/29 04:13:36;;;;;;;;;14.00;13.67;;;;;;;;5003114;28;47473;-74
2022/10/29 04:16:01;;;;;;;;;16.33;12.67;;;;;;;;5029638;28;45873;-75
2022/10/29 04:18:27;;;;;;;;;12.33;11.33;;;;;;;;5033234;28;45460;-74
2022/10/29 04:20:55;;;;;;;;;17.67;16.00;;;;;;;;5032820;28;45664;-74
2022/10/29 04:23:20;;;;;;;;;12.33;11.00;;;;;;;;5029747;28;46636;-74
2022/10/29 04:25:55;;;;;;;;;18.00;12.33;;;;;;;;5033639;28;46038;-73
2022/10/29 04:28:20;;;;;;;;;41.00;32.00;;;;;;;;5020490;28;45704;-76
2022/10/29 04:30:45;;;;;;;;;19.00;13.67;;;;;;;;5028337;28;45361;-75
2022/10/29 04:33:11;;;;;;;;;10.33;6.67;;;;;;;;5008361;28;46739;-76
2022/10/29 04:35:36;;;;;;;;;8.67;6.67;;;;;;;;5020503;28;45335;-74
2022/10/29 04:38:07;;;;;;;;;11.67;10.33;;;;;;;;5020464;28;45379;-74
2022/10/29 04:40:33;;;;;;;;;12.67;12.00;;;;;;;;5027407;28;45664;-75
2022/10/29 04:42:58;;;;;;;;;13.00;12.00;;;;;;;;5022342;28;46034;-75
2022/10/29 04:45:23;;;;;;;;;12.33;11.00;;;;;;;;5013389;28;45517;-72
2022/10/29 04:47:57;;;;;;;;;11.67;8.00;;;;;;;;5017742;28;45383;-74
2022/10/29 04:50:22;;;;;;;;;17.33;14.00;;;;;;;;5025297;28;45426;-75
2022/10/29 04:52:47;;;;;;;;;22.00;12.00;;;;;;;;5015410;28;45520;-73
2022/10/29 04:55:13;;;;;;;;;14.33;12.33;;;;;;;;5016115;28;45464;-73
2022/10/29 04:57:38;;;;;;;;;11.67;11.00;;;;;;;;5016213;28;45305;-76
2022/10/29 05:00:03;;;;;;;;;17.00;10.33;;;;;;;;5018881;28;45400;-75
2022/10/29 05:02:29;;;;;;;;;16.33;12.33;;;;;;;;5020757;28;45819;-75
2022/10/29 05:04:54;;;;;;;;;13.50;13.50;;;;;;;;5015941;28;45924;-75
2022/10/29 05:07:19;;;;;;;;;12.33;12.00;;;;;;;;5013536;28;45753;-75
2022/10/29 05:09:44;;;;;;;;;17.00;12.33;;;;;;;;5024891;28;45449;-75
2022/10/29 05:12:10;;;;;;;;;10.00;6.00;;;;;;;;5021899;28;45726;-77
2022/10/29 05:14:35;;;;;;;;;13.67;12.33;;;;;;;;5020424;28;45396;-73
2022/10/29 05:17:00;;;;;;;;;13.00;10.67;;;;;;;;5020052;28;45283;-73
2022/10/29 05:19:25;;;;;;;;;16.33;12.33;;;;;;;;5016479;28;45464;-73
2022/10/29 05:21:51;;;;;;;;;10.67;10.67;;;;;;;;5014022;28;45704;-72
2022/10/29 05:24:16;;;;;;;;;9.67;9.00;;;;;;;;5025513;28;45409;-72
2022/10/29 05:26:42;;;;;;;;;12.67;9.67;;;;;;;;5027064;28;45478;-74
2022/10/29 05:29:08;;;;;;;;;11.33;7.00;;;;;;;;5009988;28;45873;-74
2022/10/29 05:31:33;;;;;;;;;8.00;8.00;;;;;;;;5018209;28;45806;-74
2022/10/29 05:33:58;;;;;;;;;18.33;14.00;;;;;;;;5030526;28;45731;-73
2022/10/29 05:36:23;;;;;;;;;14.00;12.67;;;;;;;;5026435;28;45557;-74
2022/10/29 05:38:49;;;;;;;;;14.33;10.33;;;;;;;;5018078;28;45233;-75
2022/10/29 05:41:14;;;;;;;;;12.00;10.00;;;;;;;;4998063;28;47049;-74
2022/10/29 05:43:39;;;;;;;;;14.33;11.67;;;;;;;;5026523;28;45396;-74
2022/10/29 05:46:05;;;;;;;;;13.67;13.33;;;;;;;;5027443;28;45645;-73
2022/10/29 05:48:30;;;;;;;;;12.00;12.00;;;;;;;;5027822;28;45667;-76
2022/10/29 05:50:58;;;;;;;;;19.67;13.33;;;;;;;;5008093;28;47086;-74
2022/10/29 05:53:24;;;;;;;;;12.67;9.33;;;;;;;;5014236;28;46501;-74
2022/10/29 05:55:49;;;;;;;;;16.33;14.67;;;;;;;;5015598;28;45562;-73
2022/10/29 05:58:14;;;;;;;;;18.33;17.33;;;;;;;;5015595;28;46025;-75
2022/10/29 06:00:42;;;;;;;;;13.33;12.67;;;;;;;;5012856;28;47125;-74
2022/10/29 06:03:11;;;;;;;;;17.33;14.33;;;;;;;;5007551;28;45509;-73
2022/10/29 06:05:37;;;;;;;;;13.33;13.33;;;;;;;;5012752;28;45986;-73
2022/10/29 06:08:02;;;;;;;;;17.67;12.33;;;;;;;;5011901;28;45812;-73
2022/10/29 06:10:28;;;;;;;;;22.33;18.00;;;;;;;;4998690;28;45537;-74
2022/10/29 06:12:53;;;;;;;;;18.67;13.67;;;;;;;;5005392;28;45723;-74
2022/10/29 06:15:19;;;;;;;;;19.00;13.00;;;;;;;;5009582;28;45557;-72
2022/10/29 06:17:44;;;;;;;;;13.00;12.33;;;;;;;;5006480;28;45403;-73
2022/10/29 06:20:11;;;;;;;;;11.00;10.00;;;;;;;;5024407;28;45554;-75
2022/10/29 06:22:36;;;;;;;;;12.33;11.33;;;;;;;;5009508;28;45516;-75
2022/10/29 06:25:02;;;;;;;;;15.67;12.33;;;;;;;;5026371;28;45462;-74
2022/10/29 06:27:27;;;;;;;;;13.67;12.33;;;;;;;;5011988;28;45489;-74
2022/10/29 06:29:53;;;;;;;;;12.67;11.67;;;;;;;;5007520;28;46553;-73
2022/10/29 06:32:18;;;;;;;;;14.00;12.33;;;;;;;;5000668;28;45553;-76
2022/10/29 06:34:43;;;;;;;;;15.67;13.00;;;;;;;;5010781;28;45648;-75
2022/10/29 06:37:08;;;;;;;;;16.00;12.67;;;;;;;;5012288;28;45350;-77
2022/10/29 06:39:34;;;;;;;;;15.67;11.67;;;;;;;;5018845;28;45607;-75
2022/10/29 06:41:59;;;;;;;;;13.33;12.67;;;;;;;;5017144;28;45702;-76
2022/10/29 06:44:24;;;;;;;;;14.33;12.67;;;;;;;;5012701;28;45635;-73
2022/10/29 06:46:49;;;;;;;;;14.33;14.00;;;;;;;;5017206;28;45768;-77
2022/10/29 06:49:18;;;;;;;;;13.67;11.00;;;;;;;;5062597;22;46035;-87
2022/10/29 06:51:46;;;;;;;;;11.00;11.00;;;;;;;;5065103;27;46329;-87
2022/10/29 06:54:11;;;;;;;;;17.00;14.67;;;;;;;;5082724;27;44931;-88
2022/10/29 06:56:37;;;;;;;;;18.33;15.00;;;;;;;;5070521;28;45883;-84
2022/10/29 06:59:02;;;;;;;;;16.67;15.00;;;;;;;;5061567;28;47160;-81
2022/10/29 07:01:32;;;;;;;;;18.67;13.33;;;;;;;;5090467;27;44825;-84
2022/10/29 07:03:58;;;;;;;;;20.33;14.67;;;;;;;;5070637;27;45619;-85
2022/10/29 07:06:23;;;;;;;;;20.67;17.00;;;;;;;;5063670;28;46168;-86
2022/10/29 07:08:49;;;;;;;;;16.67;14.33;;;;;;;;5070558;27;47306;-87
2022/10/29 07:11:14;;;;;;;;;33.67;28.00;;;;;;;;5069852;28;44879;-84
2022/10/29 07:13:40;;;;;;;;;33.67;27.67;;;;;;;;5070953;27;45925;-84
2022/10/29 07:16:05;;;;;;;;;20.00;17.33;;;;;;;;5058949;28;45778;-83
2022/10/29 07:18:31;;;;;;;;;20.67;17.67;;;;;;;;5077142;28;46495;-84
2022/10/29 07:20:57;;;;;;;;;17.33;17.33;;;;;;;;5078689;27;45689;-84
2022/10/29 07:23:22;;;;;;;;;23.00;16.00;;;;;;;;5069794;28;45422;-85
2022/10/29 07:25:50;;;;;;;;;13.67;12.67;;;;;;;;5067016;28;46522;-87
2022/10/29 07:28:17;;;;;;;;;13.33;11.33;;;;;;;;5079741;22;45725;-75
2022/10/29 07:30:42;;;;;;;;;22.33;13.00;;;;;;;;5063649;27;45553;-66
2022/10/29 07:33:08;;;;;;;;;17.67;13.33;;;;;;;;5054059;28;45500;-65
2022/10/29 07:35:34;;;;;;;;;10.33;10.00;;;;;;;;5034884;28;45574;-73
2022/10/29 07:37:59;;;;;;;;;12.00;9.67;;;;;;;;5058243;28;46099;-67
2022/10/29 07:40:25;;;;;;;;;24.67;18.33;;;;;;;;5033685;28;46231;-67
2022/10/29 07:42:51;;;;;;;;;16.33;11.33;;;;;;;;5054290;28;45753;-67
2022/10/29 07:45:16;;;;;;;;;19.67;16.00;;;;;;;;5064053;28;45332;-67
2022/10/29 07:47:42;;;;;;;;;14.33;11.67;;;;;;;;5063211;28;46950;-68
2022/10/29 07:50:07;;;;;;;;;16.33;12.67;;;;;;;;5056450;28;45442;-68
2022/10/29 07:52:32;;;;;;;;;20.33;10.33;;;;;;;;5033623;28;45808;-69
2022/10/29 07:55:00;;;;;;;;;15.00;9.67;;;;;;;;5059640;28;45465;-69
2022/10/29 07:57:25;;;;;;;;;14.00;12.00;;;;;;;;5062561;27;46058;-65
2022/10/29 07:59:50;;;;;;;;;14.67;11.33;;;;;;;;5055391;28;45632;-67
2022/10/29 08:02:16;;;;;;;;;12.00;10.00;;;;;;;;5060858;28;45655;-66
2022/10/29 08:04:41;;;;;;;;;11.00;11.00;;;;;;;;5059273;27;45832;-67
2022/10/29 08:07:06;;;;;;;;;14.00;12.67;;;;;;;;5066560;27;46253;-69
2022/10/29 08:09:32;;;;;;;;;19.33;13.33;;;;;;;;5064178;28;45422;-67
2022/10/29 08:11:57;;;;;;;;;10.67;10.67;;;;;;;;5066441;27;45405;-67
2022/10/29 08:14:22;;;;;;;;;14.67;11.00;;;;;;;;5051104;28;46303;-67
2022/10/29 08:16:47;;;;;;;;;13.67;11.67;;;;;;;;5066515;27;45962;-68
2022/10/29 08:19:13;;;;;;;;;16.67;12.00;;;;;;;;5045682;28;45888;-67
2022/10/29 08:21:38;;;;;;;;;12.67;12.67;;;;;;;;5070925;27;45784;-69
2022/10/29 08:24:03;;;;;;;;;13.00;13.00;;;;;;;;5065088;27;45535;-68
2022/10/29 08:26:29;;;;;;;;;7.00;7.00;;;;;;;;5069372;27;45393;-67
2022/10/29 08:28:54;;;;;;;;;11.00;10.00;;;;;;;;5062113;27;45948;-69
2022/10/29 08:31:19;;;;;;;;;13.33;10.67;;;;;;;;5067040;27;45821;-69
2022/10/29 08:33:46;;;;;;;;;10.00;7.33;;;;;;;;5069078;27;45840;-67
2022/10/29 08:36:11;;;;;;;;;7.33;5.33;;;;;;;;5070761;28;46587;-66
2022/10/29 08:38:37;;;;;;;;;13.33;10.33;;;;;;;;5074973;27;46200;-65
2022/10/29 08:41:09;;;;;;;;;13.33;11.33;;;;;;;;5064495;28;45845;-66
2022/10/29 08:43:37;;;;;;;;;10.00;9.00;;;;;;;;5078023;27;45475;-65
2022/10/29 08:46:02;;;;;;;;;13.50;10.75;;;;;;;;5073524;27;46125;-66
2022/10/29 08:48:34;;;;;;;;;13.67;11.33;;;;;;;;5070436;27;45969;-65
2022/10/29 08:51:02;;;;;;;;;15.00;11.67;;;;;;;;5063709;27;45461;-66
2022/10/29 08:53:53;;;;;;;;;11.00;8.00;;;;;;;;5066414;28;45761;-67
2022/10/29 08:56:26;;;;;;;;;9.25;8.00;;;;;;;;5063092;27;46664;-66
2022/10/29 08:59:03;;;;;;;;;7.33;7.00;;;;;;;;5063235;28;45473;-67
2022/10/29 09:01:29;;;;;;;;;12.67;10.33;;;;;;;;5062924;27;45696;-65
2022/10/29 09:03:54;;;;;;;;;10.75;6.75;;;;;;;;5069635;28;45460;-65
2022/10/29 09:06:40;;;;;;;;;10.67;9.67;;;;;;;;5061787;27;45649;-67
2022/10/29 09:09:20;;;;;;;;;13.00;8.00;;;;;;;;5066927;28;45587;-66
2022/10/29 09:12:21;;;;;;;;;15.33;11.00;;;;;;;;5047036;28;45483;-66
2022/10/29 09:15:02;;;;;;;;;11.50;10.25;;;;;;;;5007579;28;45943;-66
2022/10/29 09:17:54;;;;;;;;;10.50;7.25;;;;;;;;5060939;27;46166;-67
2022/10/29 09:20:19;;;;;;;;;13.33;11.67;;;;;;;;5062312;27;45382;-68
2022/10/29 09:22:50;;;;;;;;;13.33;8.00;;;;;;;;5070836;27;45699;-65
2022/10/29 09:25:18;;;;;;;;;15.67;15.00;;;;;;;;5073480;27;45842;-66
2022/10/29 09:27:49;;;;;;;;;12.33;10.33;;;;;;;;5080005;27;45416;-65
2022/10/29 09:30:17;;;;;;;;;14.00;14.00;;;;;;;;5062298;28;45975;-67
2022/10/29 09:32:45;;;;;;;;;13.33;12.33;;;;;;;;5067150;27;45972;-66
2022/10/29 09:35:13;;;;;;;;;14.67;11.33;;;;;;;;5072369;27;47458;-64
2022/10/29 09:38:07;;;;;;;;;13.67;9.67;;;;;;;;5070556;27;45692;-74
2022/10/29 09:40:35;;;;;;;;;18.25;10.75;;;;;;;;4981417;28;45430;-67
2022/10/29 09:43:05;;;;;;;;;15.00;11.25;;;;;;;;5072108;28;45704;-67
2022/10/29 09:45:41;;;;;;;;;16.75;10.50;;;;;;;;5069297;27;45949;-66
2022/10/29 09:48:15;;;;;;;;;10.50;9.00;;;;;;;;5054703;28;48361;-66
2022/10/29 09:50:48;;;;;;;;;12.50;8.25;;;;;;;;5072160;27;45900;-69
2022/10/29 09:53:14;;;;;;;;;13.25;9.75;;;;;;;;5063275;28;45733;-67
2022/10/29 09:55:42;;;;;;;;;10.75;10.00;;;;;;;;5068309;27;45879;-67
2022/10/29 09:58:15;;;;;;;;;17.33;10.67;;;;;;;;5053709;28;48201;-66
2022/10/29 10:00:40;;;;;;;;;9.75;9.25;;;;;;;;5070782;27;45547;-68
2022/10/29 10:03:11;;;;;;;;;11.50;10.00;;;;;;;;5066767;28;46192;-68
2022/10/29 10:05:55;;;;;;;;;15.00;10.50;;;;;;;;5063579;27;46561;-64
2022/10/29 10:08:20;;;;;;;;;12.67;11.67;;;;;;;;5064009;27;45496;-66
2022/10/29 10:10:49;;;;;;;;;15.00;10.67;;;;;;;;5077690;27;45537;-66
2022/10/29 10:13:15;;;;;;;;;13.00;9.67;;;;;;;;5066194;27;45634;-67
2022/10/29 10:15:47;;;;;;;;;9.25;9.25;;;;;;;;5059345;27;45843;-67
2022/10/29 10:18:20;;;;;;;;;10.00;10.00;;;;;;;;5063870;28;46407;-74
2022/10/29 10:20:48;;;;;;;;;10.25;9.25;;;;;;;;5058613;28;45445;-75
2022/10/29 10:23:19;;;;;;;;;12.50;8.75;;;;;;;;5052684;28;45530;-68
2022/10/29 10:25:44;;;;;;;;;12.50;11.75;;;;;;;;5065992;28;45480;-68
2022/10/29 10:28:23;;;;;;;;;13.00;8.75;;;;;;;;5064897;27;45791;-66
2022/10/29 10:31:07;;;;;;;;;13.00;9.25;;;;;;;;5070303;28;45355;-67
2022/10/29 10:33:33;;;;;;;;;8.25;8.00;;;;;;;;5065663;27;45397;-67
2022/10/29 10:36:08;;;;;;;;;13.00;10.25;;;;;;;;5056054;28;45816;-66
2022/10/29 10:38:38;;;;;;;;;12.25;7.75;;;;;;;;5058782;28;45366;-65
2022/10/29 10:41:05;;;;;;;;;8.00;8.00;;;;;;;;5068250;28;45401;-68
2022/10/29 10:43:31;;;;;;;;;14.00;8.75;;;;;;;;5043119;28;45586;-67
2022/10/29 10:45:58;;;;;;;;;10.00;6.50;;;;;;;;5064344;27;45778;-66
2022/10/29 10:48:26;;;;;;;;;13.50;7.50;;;;;;;;5054025;28;45733;-67
2022/10/29 10:51:07;;;;;;;;;9.00;9.00;;;;;;;;5068239;28;45813;-66
2022/10/29 10:53:33;;;;;;;;;15.00;11.00;;;;;;;;5066030;28;45372;-64
2022/10/29 10:55:58;;;;;;;;;9.00;9.00;;;;;;;;5045016;28;46258;-66
2022/10/29 10:58:27;;;;;;;;;11.75;9.25;;;;;;;;5066608;28;45639;-67
2022/10/29 11:00:54;;;;;;;;;13.75;9.50;;;;;;;;5065138;28;45453;-66
2022/10/29 11:03:23;;;;;;;;;9.00;9.00;;;;;;;;5063792;28;45761;-67
2022/10/29 11:05:57;;;;;;;;;11.75;8.50;;;;;;;;5062146;28;45327;-66
2022/10/29 11:08:24;;;;;;;;;13.75;9.75;;;;;;;;5066039;28;46617;-67
2022/10/29 11:10:57;;;;;;;;;17.00;10.25;;;;;;;;5061839;28;45875;-65
2022/10/29 11:13:31;;;;;;;;;13.25;8.75;;;;;;;;5061516;28;46089;-66
2022/10/29 11:16:19;;;;;;;;;10.25;8.00;;;;;;;;5063169;27;45768;-66
2022/10/29 11:19:10;;;;;;;;;9.50;9.50;;;;;;;;5059398;28;45472;-66
2022/10/29 11:21:44;;;;;;;;;10.50;9.00;;;;;;;;5061384;27;45464;-66
2022/10/29 11:24:09;;;;;;;;;12.25;9.00;;;;;;;;5057519;28;45408;-67
2022/10/29 11:26:39;;;;;;;;;13.00;9.00;;;;;;;;5047230;28;45451;-68
2022/10/29 11:29:13;;;;;;;;;10.75;8.00;;;;;;;;5062069;28;47037;-67
2022/10/29 11:31:55;;;;;;;;;12.00;9.75;;;;;;;;5052230;28;46177;-67
2022/10/29 11:34:21;;;;;;;;;10.25;7.75;;;;;;;;5062432;28;45407;-66
2022/10/29 11:36:51;;;;;;;;;7.75;6.75;;;;;;;;5062559;28;45384;-67
2022/10/29 11:39:26;;;;;;;;;8.75;8.00;;;;;;;;5050475;28;45541;-65
2022/10/29 11:41:57;;;;;;;;;6.75;6.75;;;;;;;;5054197;28;46249;-65
2022/10/29 11:44:23;;;;;;;;;6.25;6.00;;;;;;;;5057122;28;47085;-64
2022/10/29 11:47:12;;;;;;;;;10.75;8.00;;;;;;;;5057210;28;47083;-65
2022/10/29 11:49:49;;;;;;;;;8.50;7.50;;;;;;;;5059194;28;46331;-65
2022/10/29 11:52:30;;;;;;;;;7.25;5.00;;;;;;;;5053694;28;45472;-66
2022/10/29 11:55:06;;;;;;;;;9.00;7.50;;;;;;;;5057941;28;45483;-65
2022/10/29 11:57:35;;;;;;;;;10.50;8.25;;;;;;;;5060831;28;45430;-65
2022/10/29 12:00:01;;;;;;;;;7.00;6.75;;;;;;;;5054205;28;45801;-66
2022/10/29 12:02:44;;;;;;;;;6.25;5.75;;;;;;;;5058225;28;45525;-65
2022/10/29 12:05:19;;;;;;;;;9.25;7.00;;;;;;;;5055063;28;45692;-66
2022/10/29 12:08:03;;;;;;;;;8.25;7.25;;;;;;;;5054579;28;46045;-65
2022/10/29 12:10:34;;;;;;;;;6.75;6.75;;;;;;;;5056749;28;45927;-65
2022/10/29 12:13:07;;;;;;;;;9.00;7.75;;;;;;;;5057591;28;45599;-65
2022/10/29 12:15:52;;;;;;;;;8.50;6.00;;;;;;;;5059573;27;45859;-66
2022/10/29 12:18:23;;;;;;;;;8.00;5.50;;;;;;;;5056965;28;45765;-64
2022/10/29 12:21:06;;;;;;;;;9.50;7.50;;;;;;;;5053870;28;45842;-65
2022/10/29 12:23:50;;;;;;;;;10.25;9.50;;;;;;;;5056685;28;45741;-66
2022/10/29 12:26:26;;;;;;;;;8.00;7.50;;;;;;;;5038964;28;46000;-66
2022/10/29 12:28:51;;;;;;;;;9.00;5.50;;;;;;;;5054640;28;45804;-66
2022/10/29 12:31:16;;;;;;;;;9.00;6.00;;;;;;;;5053738;28;46399;-64
2022/10/29 12:33:47;;;;;;;;;8.75;6.25;;;;;;;;5055632;28;45734;-65
2022/10/29 12:36:15;;;;;;;;;7.25;6.00;;;;;;;;5056471;28;45382;-64
2022/10/29 12:38:42;;;;;;;;;10.25;7.25;;;;;;;;5053548;28;45643;-65
2022/10/29 12:41:19;;;;;;;;;9.25;7.50;;;;;;;;5058442;28;46388;-65
2022/10/29 12:43:45;;;;;;;;;8.25;7.25;;;;;;;;5059198;28;45413;-63
2022/10/29 12:46:10;;;;;;;;;10.25;7.50;;;;;;;;5054744;28;45317;-64
2022/10/29 12:48:44;;;;;;;;;7.00;6.00;;;;;;;;5056063;28;45613;-65
2022/10/29 12:51:20;;;;;;;;;9.00;5.75;;;;;;;;5049667;28;45860;-65
2022/10/29 12:54:21;;;;;;;;;7.75;6.50;;;;;;;;5061247;28;45713;-66
2022/10/29 12:56:46;;;;;;;;;6.50;6.00;;;;;;;;4966683;28;46090;-65
2022/10/29 12:59:24;;;;;;;;;6.00;6.00;;;;;;;;5035925;28;45521;-66
2022/10/29 13:01:51;;;;;;;;;4.00;3.00;;;;;;;;5061511;28;46213;-65
2022/10/29 13:04:35;;;;;;;;;6.25;6.00;;;;;;;;5041246;28;46150;-66
2022/10/29 13:07:18;;;;;;;;;7.75;6.00;;;;;;;;5061837;28;45802;-66
2022/10/29 13:09:43;;;;;;;;;9.00;6.25;;;;;;;;5060642;28;45456;-65
2022/10/29 13:12:10;;;;;;;;;7.50;6.75;;;;;;;;5057458;28;45455;-64
2022/10/29 13:14:38;;;;;;;;;9.50;6.50;;;;;;;;5057561;28;45617;-65
2022/10/29 13:17:05;;;;;;;;;8.00;6.75;;;;;;;;5062564;27;45461;-65
2022/10/29 13:19:57;;;;;;;;;6.50;6.00;;;;;;;;5050485;28;47039;-66
2022/10/29 13:22:30;;;;;;;;;5.00;4.75;;;;;;;;5062409;28;46257;-64
2022/10/29 13:25:14;;;;;;;;;8.75;4.50;;;;;;;;5044746;28;45690;-65
2022/10/29 13:27:39;;;;;;;;;5.50;5.00;;;;;;;;5064020;27;45766;-65
2022/10/29 13:30:14;;;;;;;;;6.00;4.75;;;;;;;;5056527;28;45689;-66
2022/10/29 13:32:39;;;;;;;;;5.00;3.50;;;;;;;;5063430;28;46485;-66
2022/10/29 13:35:24;;;;;;;;;6.00;6.00;;;;;;;;5045883;28;45410;-63
2022/10/29 13:37:51;;;;;;;;;8.50;5.50;;;;;;;;5068223;28;45515;-66
2022/10/29 13:40:31;;;;;;;;;5.00;4.50;;;;;;;;5067411;28;45391;-65
2022/10/29 13:43:04;;;;;;;;;7.25;5.00;;;;;;;;5047380;28;47696;-68
2022/10/29 13:45:31;;;;;;;;;13.00;6.25;;;;;;;;5072485;28;45718;-67
2022/10/29 13:47:59;;;;;;;;;5.00;4.75;;;;;;;;5069778;28;45784;-66
2022/10/29 13:50:25;;;;;;;;;6.25;5.25;;;;;;;;5074169;27;45480;-65
2022/10/29 13:52:52;;;;;;;;;1.00;1.00;;;;;;;;5068620;27;45461;-67
2022/10/29 13:55:18;;;;;;;;;9.50;4.00;;;;;;;;5075056;27;45639;-66
2022/10/29 13:58:02;;;;;;;;;10.25;7.25;;;;;;;;5052470;28;45339;-66
2022/10/29 14:00:29;;;;;;;;;5.00;4.25;;;;;;;;5065474;28;45937;-67
2022/10/29 14:02:57;;;;;;;;;7.25;5.00;;;;;;;;5066251;28;46021;-66
2022/10/29 14:05:32;;;;;;;;;6.75;5.25;;;;;;;;5067618;28;45585;-66
2022/10/29 14:08:10;;;;;;;;;6.50;4.50;;;;;;;;5068681;28;45411;-67
2022/10/29 14:10:42;;;;;;;;;31.33;27.33;;;;;;;;5057635;28;47019;-66
2022/10/29 14:13:20;;;;;;;;;10.00;8.25;;;;;;;;5057525;28;45718;-66
2022/10/29 14:16:00;;;;;;;;;12.50;8.00;;;;;;;;5060467;27;45325;-66
2022/10/29 14:18:26;;;;;;;;;8.50;7.00;;;;;;;;5054036;28;45847;-68
2022/10/29 14:20:55;;;;;;;;;4.00;4.00;;;;;;;;5063279;28;45466;-68
2022/10/29 14:23:20;;;;;;;;;7.75;6.25;;;;;;;;5049140;28;47266;-67
2022/10/29 14:25:49;;;;;;;;;6.50;6.25;;;;;;;;5055489;27;45728;-67
2022/10/29 14:28:30;;;;;;;;;7.00;6.00;;;;;;;;5060935;28;45615;-66
2022/10/29 14:31:02;;;;;;;;;8.00;5.25;;;;;;;;5058160;28;45999;-69
2022/10/29 14:33:34;;;;;;;;;5.50;4.00;;;;;;;;5058185;28;45829;-68